Barbados Meteorological Services
Auto gathered TAF list
Powered by Apparatus software
For Flight DE3745
Contact Number 1-(246)-535-0021/2/3/4/5/6
WEB: http://www.barbadosweather.org

**********************************************

2018/12/15 18:44
TAF TBPB 151700Z 1518/1618 09022KT 9999 SCT020 PROB30
TEMPO 1518/1524 SHRA BKN014 BKN036


**********************************************
2018/12/15 18:59
TAF TAPA 151700Z 1518/1618 10014KT 9999 SCT019= TAF TRPG 151700Z 1518/1618 11012KT 9999 SCT020


**********************************************
2018/12/15 18:18
TAF LPPR 151700Z 1518/1618 19017KT 6000 -RA SCT004 BKN008
TEMPO 1518/1521 20022G32KT 2000 RADZ BR SCT001 BKN002
BECMG 1521/1524 21005KT
BECMG 1600/1603 26005KT 9999 NSW SCT015 PROB40
TEMPO 1603/1615 8000 SHRA SCT004 BKN012 FEW020TCU
BECMG 1612/1615 30008KT
BECMG 1616/1618 VRB03KT SCT020


**********************************************
2018/12/15 18:18
TAF LPPD 151700Z 1518/1618 26017KT 9999 SCT025
TEMPO 1518/1618 FEW018 BKN035 PROB30
TEMPO 1518/1602 26020G32KT 8000 SHRA BKN015 FEW025TCU
BECMG 1602/1604 29010KT
BECMG 1609/1611 25013KT
BECMG 1615/1617 22017KT


**********************************************
2018/12/15 18:18
TAF LPLA 151702Z 1518/1618 28012KT 9999 SCT020
TEMPO 1518/1603 28015G25KT 6000 -SHRA SCT012 BKN020


**********************************************
2018/12/15 18:18
TAF TAF LPAZ 151700Z 1518/1624 27015KT 9999 SCT025
TEMPO 1518/1624 FEW018 BKN035 PROB30
TEMPO 1518/1606 27020G32KT 8000 SHRA BKN015 FEW025TCU
BECMG 1606/1609 30010KT
BECMG 1610/1613 25012KT
BECMG 1618/1621 22017KT


**********************************************
2018/12/15 18:21
TAF LIMC 151700Z 1518/1624 VRB05KT 9999 SCT025 SCT060 PROB30
TEMPO 1618/1624 -SN BKN012


**********************************************
2018/12/15 18:21
TAF LFPO 151700Z 1518/1624 13009KT 6000 BKN020
TEMPO 1518/1522 4000 BR BKN006 PROB40
TEMPO 1518/1522 15015G25KT 2000 -RA BKN004
TEMPO 1522/1615 1500 BR BKN002 PROB40
TEMPO 1603/1607 0600 FG VV///


**********************************************
2018/12/15 18:27
TAF LEVT 151700Z 1518/1618 23009KT 9999 SCT020 BKN060 TX12/1614Z TN02/1606Z
TEMPO 1518/1521 20015G29KT
TEMPO 1521/1610 RA PROB30
TEMPO 1521/1608 BKN010


**********************************************
2018/12/15 18:27
TAF
AMD LEMD 151714Z 1518/1624 23008KT 8000 SCT007 BKN020 TX13/1615Z TNM05/1606Z
TEMPO 1600/1615 3000 RA BR BKN009
TEMPO 1602/1607 18005KT PROB40
TEMPO 1606/1610 1500 BR BKN004
TEMPO 1609/1618 24010KT PROB30
TEMPO 1613/1617 25010G20KT


**********************************************
2018/12/15 18:33
TAF ESSA 151730Z 1518/1618 03004KT 9999 FEW005 BKN035 PROB40 1518/1606 BKN004 PROB40 1520/1606 4000 -SHSN
TEMPO 1606/1616 2500 -SHSN BKN006
BECMG 1616/1618 10010KT 2000 -SN BKN006


**********************************************
2018/12/15 18:47
TAF ELLX 151700Z 1518/1624 12010KT CAVOK
BECMG 1522/1524 3000 -SN BKN005 BKN007
TEMPO 1601/1604 0700 SN BKN002
BECMG 1607/1609 20005KT NSW PROB40
TEMPO 1606/1612 -FZDZ


**********************************************
2012/04/19 12:15
TAF TAF EGTE 191401Z 1912/1924 31016KT 9999 SCT030 SCT035 PROB40
TEMPO 1915/1918 7000 SHRA BKN014


**********************************************
2018/12/15 18:09
TAF EGPK 151658Z 1518/1618 13018G28KT 9999 FEW016 BKN030
TEMPO 1518/1603 8000 -RA PROB40
TEMPO 1518/1603 4500 RA BKN012 PROB30
TEMPO 1518/1520 14025G40KT
BECMG 1521/1524 14008KT
BECMG 1600/1603 23015G25KT


**********************************************
2018/12/15 18:09
TAF EGNT 151655Z 1518/1618 14015KT 9999 SCT020
TEMPO 1518/1524 15022G35KT 6000 RASN BKN008 PROB40
TEMPO 1518/1524 1400 SN BKN002
BECMG 1600/1603 22012KT PROB30
TEMPO 1600/1603 23015G25KT 7000 RA BKN004
BECMG 1609/1612 16008KT PROB30
TEMPO 1616/1618 6000 RA BKN008


**********************************************
2018/12/15 18:09
TAF TAF EGLL 151656Z 1518/1624 13014KT 9999 BKN025
TEMPO 1518/1519 14018G28KT 7000 RA BKN012 PROB40
TEMPO 1518/1519 3500 +RA BKN008
BECMG 1519/1521 22010KT
TEMPO 1519/1522 3000 -RADZ BKN005
BECMG 1600/1603 7000
TEMPO 1603/1611 3000 BR PROB30
TEMPO 1605/1610 0400 FG VV///
BECMG 1610/1612 16010KT 9999
TEMPO 1619/1624 4000 SHRA BKN012
BECMG 1622/1624 25008KT


**********************************************
2018/12/15 18:09
TAF EGKK 151652Z 1518/1624 14014KT 6000 -RA BKN007
TEMPO 1518/1521 3000 RA BKN004 PROB30
TEMPO 1518/1521 14018G28KT +RA
BECMG 1519/1521 25010KT 9999 NSW FEW025 PROB30
TEMPO 1521/1601 8000
BECMG 1601/1604 5000 BR PROB30 1602/1610 0300 FG VV///
BECMG 1609/1612 19010KT 9999
TEMPO 1618/1621 4000 SHRA BKN013
BECMG 1621/1624 27006KT


**********************************************
2018/12/15 18:09
TAF EGFF 151700Z 1518/1618 25023G38KT 9999 SCT025
BECMG 1522/1601 22015KT PROB30
TEMPO 1522/1605 23018G28KT 7000 SHRA
TEMPO 1614/1618 7000 SHRA PROB30
TEMPO 1614/1617 3000 +SHRA BKN014 BKN025CB
BECMG 1615/1618 29010KT


**********************************************
2018/12/15 18:09
TAF EGCC 151655Z 1518/1624 13020G30KT 9999 SCT025
BECMG 1518/1521 19018G28KT
TEMPO 1518/1601 7000 RA BKN012 PROB30
TEMPO 1518/1601 3000 +RA BKN008
BECMG 1521/1524 23012KT
BECMG 1603/1606 17009KT
TEMPO 1616/1623 7000 RA BKN010 PROB30
TEMPO 1616/1622 4000 +SHRA BKN006 BKN030CB


**********************************************
2018/12/15 18:09
TAF EGBB 151700Z 1518/1618 15018G28KT 6000 -RA BKN010
TEMPO 1518/1519 3000 RA BKN006
BECMG 1519/1522 21016G30KT 9999 NSW SCT025
BECMG 1522/1601 21007KT PROB30 1604/1609 3000 BR MIFG
BECMG 1612/1615 15010KT
TEMPO 1616/1618 7000 SHRA PROB30
TEMPO 1616/1618 4000 +SHRA BKN014


**********************************************
2018/12/15 18:27
TAF EDDM 151700Z 1518/1624 09005KT 9999 BKN025
BECMG 1609/1611 4000 -SN OVC009
TEMPO 1610/1614 2000 SN BKN004
BECMG 1614/1616 8000 BKN012 PROB30
TEMPO 1614/1617 -FZDZ
BECMG 1616/1618 20005KT BKN015
BECMG 1619/1621 14004KT


**********************************************
2018/12/15 18:28
TAF EDDL 151700Z 1518/1624 15010KT 9999 BKN030
BECMG 1518/1521 15015G25KT
TEMPO 1602/1608 1500 SN BKN005 PROB30
TEMPO 1603/1606 -FZRA
BECMG 1608/1611 17009KT
TEMPO 1608/1612 4000 -SNRA BR BKN007
TEMPO 1612/1619 BKN014


**********************************************
2018/12/15 18:27
TAF EDDK 151700Z 1518/1624 12010KT 9999 BKN030
TEMPO 1518/1602 12015KT
TEMPO 1602/1608 13015G25KT 1500 SN BKN005 PROB30
TEMPO 1603/1606 -FZRA
TEMPO 1608/1612 4000 -SNRA BR BKN010 PROB30
TEMPO 1612/1616 BKN014
BECMG 1612/1615 13005KT


**********************************************
2018/12/15 18:27
TAF TAF EDDF 151700Z 1518/1624 13007KT 9999 SCT030
BECMG 1604/1606 4000 -SN OVC010
TEMPO 1605/1609 2000 -SN BKN006
BECMG 1607/1609 19004KT NSW
TEMPO 1609/1613 2500 -FZDZ BKN008
TEMPO 1613/1618 2500 -DZ BR BKN005
BECMG 1618/1620 2500 BR OVC004 PROB30
TEMPO 1620/1624 0500 FG


**********************************************
2018/12/15 18:27
TAF TAF EBBR 151700Z 1518/1624 14012KT 9999 BKN040
TEMPO 1518/1521 -SN -FZRA
BECMG 1520/1522 3500 -SN BKN008 PROB40
TEMPO 1521/1524 16016G28KT 1200 SN BKN002 PROB30
TEMPO 1600/1602 -FZRA
BECMG 1602/1604 20010KT 6000 NSW PROB30 1604/1608 0500 FG BKN001 PROB30
TEMPO 1608/1610 4000 SHRA BKN014TCU
BECMG 1612/1614 SCT008 BKN014
TEMPO 1616/1620 BKN006


**********************************************